createdAt,value
2018-03-22T00:00:56.624Z,11.07
2018-03-22T00:03:24.083Z,12.90
2018-03-22T00:05:51.540Z,14.03
2018-03-22T00:08:19.010Z,10.50
2018-03-22T00:10:46.444Z,10.50
2018-03-22T00:13:13.904Z,11.10
2018-03-22T00:15:41.354Z,9.27
2018-03-22T00:18:08.824Z,9.07
2018-03-22T00:20:36.264Z,8.90
2018-03-22T00:23:03.732Z,9.93
2018-03-22T00:25:31.200Z,7.80
2018-03-22T00:27:59.516Z,9.40
2018-03-22T00:30:28.190Z,8.63
2018-03-22T00:32:55.619Z,8.37
2018-03-22T00:35:23.073Z,8.10
2018-03-22T00:37:51.128Z,9.30
2018-03-22T00:40:18.592Z,8.83
2018-03-22T00:42:46.044Z,9.37
2018-03-22T00:45:13.467Z,9.47
2018-03-22T00:47:41.052Z,8.97
2018-03-22T00:50:08.528Z,9.33
2018-03-22T00:52:36.084Z,10.27
2018-03-22T00:55:03.666Z,8.83
2018-03-22T00:57:31.089Z,10.23
2018-03-22T00:59:58.560Z,9.90
2018-03-22T01:02:26.121Z,10.50
2018-03-22T01:04:53.551Z,9.20
2018-03-22T01:07:21.010Z,9.67
2018-03-22T01:09:48.441Z,10.67
2018-03-22T01:12:16.713Z,10.17
2018-03-22T01:14:45.182Z,9.80
2018-03-22T01:17:12.708Z,9.73
2018-03-22T01:19:41.334Z,9.63
2018-03-22T01:22:09.663Z,9.33
2018-03-22T01:24:37.942Z,10.33
2018-03-22T01:27:05.475Z,10.43
2018-03-22T01:29:32.908Z,11.63
2018-03-22T01:32:01.128Z,11.17
2018-03-22T01:34:28.584Z,11.13
2018-03-22T01:36:56.020Z,9.10
2018-03-22T01:39:23.518Z,9.70
2018-03-22T01:41:51.383Z,10.87
2018-03-22T01:44:18.813Z,9.97
2018-03-22T01:46:46.256Z,11.00
2018-03-22T01:49:13.697Z,9.37
2018-03-22T01:51:41.123Z,10.00
2018-03-22T01:54:08.560Z,9.43
2018-03-22T01:56:36.729Z,10.37
2018-03-22T01:59:04.191Z,8.80
2018-03-22T02:01:31.619Z,9.63
2018-03-22T02:03:59.105Z,10.20
2018-03-22T02:06:26.656Z,9.97
2018-03-22T02:08:54.112Z,12.13
2018-03-22T02:11:21.552Z,9.73
2018-03-22T02:13:48.999Z,9.70
2018-03-22T02:16:16.454Z,9.70
2018-03-22T02:18:43.883Z,11.27
2018-03-22T02:21:12.100Z,10.47
2018-03-22T02:23:39.544Z,9.70
2018-03-22T02:26:06.987Z,11.40
2018-03-22T02:28:34.500Z,10.40
2018-03-22T02:31:01.940Z,11.60
2018-03-22T02:33:29.409Z,11.03
2018-03-22T02:35:56.835Z,10.47
2018-03-22T02:38:24.320Z,10.63
2018-03-22T02:40:51.884Z,11.20
2018-03-22T02:43:20.222Z,10.73
2018-03-22T02:45:47.710Z,12.57
2018-03-22T02:48:15.172Z,11.40
2018-03-22T02:50:42.648Z,10.87
2018-03-22T02:53:10.863Z,10.17
2018-03-22T02:55:38.304Z,10.97
2018-03-22T02:58:06.513Z,10.77
2018-03-22T03:00:33.967Z,9.53
2018-03-22T03:03:01.395Z,9.13
2018-03-22T03:05:28.902Z,10.10
2018-03-22T03:07:56.851Z,10.00
2018-03-22T03:10:25.011Z,11.20
2018-03-22T03:12:52.948Z,10.27
2018-03-22T03:15:21.150Z,11.57
2018-03-22T03:17:48.836Z,10.17
2018-03-22T03:20:16.328Z,10.87
2018-03-22T03:22:43.752Z,10.40
2018-03-22T03:25:11.214Z,10.73
2018-03-22T03:27:38.674Z,11.40
2018-03-22T03:30:06.128Z,10.87
2018-03-22T03:32:33.559Z,11.67
2018-03-22T03:35:01.007Z,11.73
2018-03-22T03:37:28.436Z,11.50
2018-03-22T03:39:56.672Z,12.63
2018-03-22T03:42:24.128Z,12.50
2018-03-22T03:44:51.576Z,12.13
2018-03-22T03:47:19.019Z,12.97
2018-03-22T03:49:46.459Z,14.60
2018-03-22T03:52:13.958Z,13.53
2018-03-22T03:54:41.399Z,14.03
2018-03-22T03:57:09.311Z,13.37
2018-03-22T03:59:36.838Z,13.00
2018-03-22T04:02:04.363Z,13.77
2018-03-22T04:04:32.208Z,13.00
2018-03-22T04:07:00.453Z,13.87
2018-03-22T04:09:27.960Z,13.60
2018-03-22T04:11:56.218Z,13.20
2018-03-22T04:14:23.684Z,13.57
2018-03-22T04:16:51.900Z,12.53
2018-03-22T04:19:19.357Z,12.80
2018-03-22T04:21:46.805Z,13.40
2018-03-22T04:24:14.252Z,14.70
2018-03-22T04:26:41.688Z,14.23
2018-03-22T04:29:09.199Z,13.37
2018-03-22T04:31:36.641Z,12.70
2018-03-22T04:34:04.067Z,13.90
2018-03-22T04:36:31.510Z,14.53
2018-03-22T04:38:59.735Z,13.20
2018-03-22T04:41:27.179Z,12.30
2018-03-22T04:43:54.608Z,13.70
2018-03-22T04:46:22.127Z,12.20
2018-03-22T04:48:49.568Z,13.00
2018-03-22T04:51:17.024Z,12.97
2018-03-22T04:53:44.460Z,13.07
2018-03-22T04:56:11.904Z,12.43
2018-03-22T04:58:39.342Z,13.67
2018-03-22T05:01:06.773Z,12.30
2018-03-22T05:03:34.225Z,13.33
2018-03-22T05:06:01.670Z,13.60
2018-03-22T05:08:29.154Z,13.90
2018-03-22T05:10:56.614Z,12.70
2018-03-22T05:13:24.045Z,12.30
2018-03-22T05:15:52.241Z,12.30
2018-03-22T05:18:20.478Z,12.27
2018-03-22T05:20:47.910Z,10.90
2018-03-22T05:23:15.388Z,13.30
2018-03-22T05:25:42.861Z,11.07
2018-03-22T05:28:10.408Z,11.80
2018-03-22T05:30:37.855Z,12.13
2018-03-22T05:33:05.320Z,11.17
2018-03-22T05:35:32.776Z,11.63
2018-03-22T05:38:00.212Z,11.70
2018-03-22T05:40:27.704Z,12.20
2018-03-22T05:42:55.144Z,12.00
2018-03-22T05:45:22.577Z,11.13
2018-03-22T05:47:50.058Z,13.07
2018-03-22T05:50:17.504Z,11.60
2018-03-22T05:52:45.794Z,13.00
2018-03-22T05:55:13.241Z,12.40
2018-03-22T05:57:42.345Z,12.20
2018-03-22T06:00:09.809Z,12.37
2018-03-22T06:02:37.240Z,13.23
2018-03-22T06:05:04.725Z,12.27
2018-03-22T06:07:32.179Z,12.63
2018-03-22T06:09:59.744Z,10.63
2018-03-22T06:12:27.177Z,12.90
2018-03-22T06:14:54.625Z,12.53
2018-03-22T06:17:22.063Z,12.30
2018-03-22T06:19:49.488Z,13.03
2018-03-22T06:22:17.732Z,11.60
2018-03-22T06:24:45.218Z,12.67
2018-03-22T06:27:12.658Z,11.70
2018-03-22T06:29:40.115Z,12.70
2018-03-22T06:32:07.580Z,10.20
2018-03-22T06:34:35.116Z,12.67
2018-03-22T06:37:02.548Z,12.77
2018-03-22T06:39:30.771Z,11.50
2018-03-22T06:41:59.164Z,12.10
2018-03-22T06:44:26.692Z,11.40
2018-03-22T06:46:54.160Z,11.93
2018-03-22T06:49:21.709Z,12.20
2018-03-22T06:51:50.752Z,12.53
2018-03-22T06:54:18.944Z,12.10
2018-03-22T06:56:47.477Z,10.80
2018-03-22T06:59:15.116Z,10.30
2018-03-22T07:01:42.567Z,9.97
2018-03-22T07:04:10.047Z,10.70
2018-03-22T07:06:37.479Z,10.20
2018-03-22T07:09:05.972Z,9.97
2018-03-22T07:11:33.531Z,9.87
2018-03-22T07:14:00.983Z,9.80
2018-03-22T07:16:28.539Z,10.17
2018-03-22T07:18:55.973Z,10.57
2018-03-22T07:21:23.456Z,9.87
2018-03-22T07:23:50.932Z,10.00
2018-03-22T07:26:18.360Z,9.80
2018-03-22T07:28:45.811Z,9.77
2018-03-22T07:31:13.250Z,10.37
2018-03-22T07:33:41.229Z,9.10
2018-03-22T07:36:08.708Z,10.40
2018-03-22T07:38:36.172Z,10.40
2018-03-22T07:41:03.603Z,11.03
2018-03-22T07:43:36.704Z,9.80
2018-03-22T07:46:04.152Z,9.87
2018-03-22T07:48:31.603Z,9.00
2018-03-22T07:50:59.045Z,11.30
2018-03-22T07:53:26.483Z,10.87
2018-03-22T07:55:54.717Z,10.27
2018-03-22T07:58:22.167Z,8.87
2018-03-22T08:00:49.626Z,10.00
2018-03-22T08:03:18.001Z,10.43
2018-03-22T08:05:45.468Z,9.10
2018-03-22T08:08:12.900Z,9.63
2018-03-22T08:10:40.484Z,9.07
2018-03-22T08:13:07.908Z,8.90
2018-03-22T08:15:35.352Z,8.50
2018-03-22T08:18:02.798Z,8.23
2018-03-22T08:20:31.017Z,7.43
2018-03-22T08:22:58.489Z,8.67
2018-03-22T08:25:25.965Z,8.30
2018-03-22T08:27:53.614Z,8.57
2018-03-22T08:30:21.047Z,7.80
2018-03-22T08:32:48.596Z,6.67
2018-03-22T08:35:16.071Z,7.23
2018-03-22T08:37:43.504Z,7.83
2018-03-22T08:40:10.947Z,7.50
2018-03-22T08:42:38.453Z,7.10
2018-03-22T08:45:05.908Z,7.33
2018-03-22T08:47:33.355Z,6.50
2018-03-22T08:50:00.811Z,6.53
2018-03-22T08:52:28.247Z,6.50
2018-03-22T08:54:55.687Z,7.73
2018-03-22T08:57:23.135Z,7.87
2018-03-22T08:59:51.355Z,7.60
2018-03-22T09:02:18.815Z,8.00
2018-03-22T09:04:46.272Z,8.30
2018-03-22T09:07:13.713Z,7.00
2018-03-22T09:09:41.174Z,7.70
2018-03-22T09:12:08.607Z,8.27
2018-03-22T09:14:36.055Z,8.70
2018-03-22T09:17:04.272Z,8.77
2018-03-22T09:19:31.709Z,8.43
2018-03-22T09:21:59.140Z,9.30
2018-03-22T09:24:26.648Z,8.90
2018-03-22T09:26:59.700Z,9.20
2018-03-22T09:29:27.144Z,8.57
2018-03-22T09:31:55.359Z,9.00
2018-03-22T09:34:22.919Z,9.77
2018-03-22T09:36:50.353Z,8.93
2018-03-22T09:39:17.840Z,8.20
2018-03-22T09:41:45.279Z,9.07
2018-03-22T09:44:12.762Z,8.33
2018-03-22T09:46:40.217Z,8.50
2018-03-22T09:49:07.664Z,8.87
2018-03-22T09:51:35.110Z,7.80
2018-03-22T09:54:02.535Z,8.50
2018-03-22T09:56:29.964Z,8.80
2018-03-22T09:58:57.399Z,8.20
2018-03-22T10:01:24.843Z,8.47
2018-03-22T10:03:52.285Z,8.93
2018-03-22T10:06:19.756Z,8.60
2018-03-22T10:08:47.217Z,9.73
2018-03-22T10:11:14.671Z,8.07
2018-03-22T10:13:42.143Z,8.80
2018-03-22T10:16:10.004Z,8.90
2018-03-22T10:18:37.460Z,8.03
2018-03-22T10:21:04.895Z,7.83
2018-03-22T10:23:32.365Z,8.30
2018-03-22T10:25:59.911Z,7.27
2018-03-22T10:28:27.658Z,8.17
2018-03-22T10:30:55.088Z,7.70
2018-03-22T10:33:23.323Z,9.00
2018-03-22T10:35:50.785Z,7.87
2018-03-22T10:38:18.220Z,8.63
2018-03-22T10:40:45.652Z,8.20
2018-03-22T10:43:13.147Z,7.43
2018-03-22T10:45:40.611Z,7.97
2018-03-22T10:48:08.063Z,8.50
2018-03-22T10:50:35.499Z,7.87
2018-03-22T10:53:02.936Z,8.27
2018-03-22T10:55:30.435Z,8.40
2018-03-22T10:57:57.867Z,7.90
2018-03-22T11:00:30.948Z,7.80
2018-03-22T11:03:13.256Z,7.80
2018-03-22T11:05:40.717Z,6.47
2018-03-22T11:08:08.195Z,6.90
2018-03-22T11:10:35.639Z,6.90
2018-03-22T11:13:03.075Z,6.53
2018-03-22T11:15:30.524Z,7.13
2018-03-22T11:17:57.957Z,7.27
2018-03-22T11:20:25.495Z,7.63
2018-03-22T11:22:53.046Z,7.30
2018-03-22T11:25:20.485Z,8.70
2018-03-22T11:27:47.976Z,6.67
2018-03-22T11:30:15.409Z,6.73
2018-03-22T11:32:42.867Z,7.10
2018-03-22T11:35:10.324Z,8.30
2018-03-22T11:37:37.777Z,7.80
2018-03-22T11:40:05.263Z,6.57
2018-03-22T11:42:32.837Z,8.03
2018-03-22T11:45:00.258Z,7.27
2018-03-22T11:47:28.256Z,7.50
2018-03-22T11:49:55.793Z,7.70
2018-03-22T11:52:23.239Z,7.37
2018-03-22T11:54:50.812Z,9.07
2018-03-22T11:57:18.286Z,8.20
2018-03-22T11:59:45.721Z,9.23
2018-03-22T12:02:13.172Z,9.27
2018-03-22T12:04:40.640Z,8.37
2018-03-22T12:07:08.079Z,8.90
2018-03-22T12:09:35.545Z,10.30
2018-03-22T12:12:02.995Z,9.07
2018-03-22T12:14:30.441Z,9.70
2018-03-22T12:16:57.923Z,10.00
2018-03-22T12:19:25.476Z,8.83
2018-03-22T12:21:53.286Z,9.50
2018-03-22T12:24:21.516Z,9.63
2018-03-22T12:26:48.957Z,10.53
2018-03-22T12:29:16.392Z,10.10
2018-03-22T12:31:43.838Z,10.53
2018-03-22T12:34:12.056Z,9.47
2018-03-22T12:36:39.615Z,10.17
2018-03-22T12:39:07.050Z,9.83
2018-03-22T12:41:34.532Z,9.87
2018-03-22T12:44:01.980Z,9.40
2018-03-22T12:46:29.448Z,11.23
2018-03-22T12:48:56.904Z,10.90
2018-03-22T12:51:24.342Z,9.93
2018-03-22T12:53:51.780Z,10.60
2018-03-22T12:56:19.313Z,11.30
2018-03-22T12:58:46.835Z,11.90
2018-03-22T13:01:14.272Z,11.77
2018-03-22T13:03:42.189Z,11.93
2018-03-22T13:06:09.711Z,11.70
2018-03-22T13:08:37.148Z,11.80
2018-03-22T13:11:04.628Z,12.07
2018-03-22T13:13:32.092Z,11.60
2018-03-22T13:15:59.519Z,12.37
2018-03-22T13:18:27.000Z,12.20
2018-03-22T13:20:54.456Z,12.00
2018-03-22T13:23:21.917Z,12.40
2018-03-22T13:25:49.373Z,12.03
2018-03-22T13:28:16.824Z,13.17
2018-03-22T13:30:44.295Z,12.00
2018-03-22T13:33:11.763Z,12.33
2018-03-22T13:35:39.299Z,12.00
2018-03-22T13:38:06.736Z,11.10
2018-03-22T13:40:34.193Z,11.47
2018-03-22T13:43:01.628Z,11.53
2018-03-22T13:45:29.067Z,11.23
2018-03-22T13:47:57.289Z,11.80
2018-03-22T13:50:24.759Z,11.20
2018-03-22T13:52:52.224Z,11.80
2018-03-22T13:55:19.660Z,11.87
2018-03-22T13:57:47.099Z,11.20
2018-03-22T14:00:14.583Z,11.07
2018-03-22T14:02:42.002Z,12.00
2018-03-22T14:05:09.431Z,11.27
2018-03-22T14:07:37.671Z,10.60
2018-03-22T14:10:05.132Z,10.53
2018-03-22T14:12:33.859Z,12.17
2018-03-22T14:15:01.873Z,11.40
2018-03-22T14:17:29.344Z,11.33
2018-03-22T14:19:57.928Z,11.03
2018-03-22T14:22:26.113Z,11.13
2018-03-22T14:24:53.532Z,9.70
2018-03-22T14:27:22.529Z,9.60
2018-03-22T14:29:50.065Z,11.20
2018-03-22T14:32:17.460Z,11.10
2018-03-22T14:34:44.902Z,9.63
2018-03-22T14:37:12.339Z,11.03
2018-03-22T14:39:39.759Z,10.30
2018-03-22T14:42:07.295Z,11.47
2018-03-22T14:44:34.747Z,9.47
2018-03-22T14:47:02.204Z,10.00
2018-03-22T14:49:29.672Z,9.80
2018-03-22T14:51:57.124Z,9.67
2018-03-22T14:54:24.572Z,10.80
2018-03-22T14:56:52.055Z,8.83
2018-03-22T14:59:19.503Z,9.53
2018-03-22T15:01:46.969Z,10.50
2018-03-22T15:04:14.415Z,9.27
2018-03-22T15:06:43.723Z,9.77
2018-03-22T15:09:11.203Z,10.17
2018-03-22T15:11:39.445Z,9.83
2018-03-22T15:14:06.912Z,10.30
2018-03-22T15:16:34.489Z,8.70
2018-03-22T15:19:01.887Z,9.40
2018-03-22T15:21:29.775Z,9.27
2018-03-22T15:23:57.221Z,9.60
2018-03-22T15:26:24.707Z,9.43
2018-03-22T15:28:52.177Z,8.87
2018-03-22T15:31:19.596Z,8.90
2018-03-22T15:33:47.176Z,9.90
2018-03-22T15:36:14.732Z,8.57
2018-03-22T15:38:42.180Z,9.33
2018-03-22T15:41:09.640Z,8.33
2018-03-22T15:43:37.096Z,8.60
2018-03-22T15:46:04.527Z,8.80
2018-03-22T15:48:32.016Z,7.77
2018-03-22T15:50:59.444Z,8.20
2018-03-22T15:53:26.888Z,7.20
2018-03-22T15:55:54.319Z,7.43
2018-03-22T15:58:22.670Z,8.30
2018-03-22T16:00:50.116Z,7.13
2018-03-22T16:03:17.547Z,7.87
2018-03-22T16:05:44.997Z,7.60
2018-03-22T16:08:12.480Z,7.93
2018-03-22T16:10:39.944Z,6.73
2018-03-22T16:13:07.384Z,7.50
2018-03-22T16:15:34.860Z,7.17
2018-03-22T16:18:02.339Z,6.70
2018-03-22T16:20:29.896Z,7.23
2018-03-22T16:22:58.172Z,7.80
2018-03-22T16:25:25.632Z,7.73
2018-03-22T16:27:53.185Z,7.13
2018-03-22T16:30:20.634Z,7.63
2018-03-22T16:32:48.092Z,7.37
2018-03-22T16:35:15.559Z,7.37
2018-03-22T16:37:43.020Z,8.20
2018-03-22T16:40:10.480Z,6.83
2018-03-22T16:42:38.040Z,7.90
2018-03-22T16:45:05.508Z,7.80
2018-03-22T16:47:33.735Z,7.53
2018-03-22T16:50:01.843Z,8.20
2018-03-22T16:52:29.304Z,7.50
2018-03-22T16:54:57.536Z,7.63
2018-03-22T16:57:24.983Z,7.30
2018-03-22T16:59:52.484Z,7.53
2018-03-22T17:02:19.956Z,7.47
2018-03-22T17:04:48.175Z,7.70
2018-03-22T17:07:15.659Z,8.03
2018-03-22T17:09:43.119Z,8.07
2018-03-22T17:12:10.571Z,6.70
2018-03-22T17:14:38.072Z,7.47
2018-03-22T17:17:06.286Z,18.63
2018-03-22T19:03:01.597Z,7.60
2018-03-22T19:05:29.053Z,8.40
2018-03-22T19:07:56.486Z,8.80
2018-03-22T19:10:23.908Z,8.00
2018-03-22T19:12:52.125Z,7.80
2018-03-22T19:15:19.560Z,9.27
2018-03-22T19:17:46.992Z,9.07
2018-03-22T19:20:15.199Z,8.87
2018-03-22T19:22:42.669Z,9.97
2018-03-22T19:25:10.070Z,9.40
2018-03-22T19:27:38.254Z,9.33
2018-03-22T19:30:05.681Z,10.33
2018-03-22T19:32:33.113Z,9.87
2018-03-22T19:35:00.724Z,10.13
2018-03-22T19:37:29.564Z,9.80
2018-03-22T19:39:57.032Z,11.50
2018-03-22T19:42:24.464Z,9.37
2018-03-22T19:44:52.580Z,10.07
2018-03-22T19:47:20.947Z,9.30
2018-03-22T19:49:48.407Z,9.80
2018-03-22T19:52:15.859Z,8.87
2018-03-22T19:54:43.280Z,9.50
2018-03-22T19:57:10.716Z,9.60
2018-03-22T19:59:39.032Z,9.50
2018-03-22T20:02:06.493Z,9.57
2018-03-22T20:04:33.930Z,10.00
2018-03-22T20:07:01.359Z,9.37
2018-03-22T20:09:28.808Z,8.70
2018-03-22T20:11:57.012Z,9.27
2018-03-22T20:14:24.451Z,9.90
2018-03-22T20:16:52.669Z,8.80
2018-03-22T20:19:20.128Z,9.00
2018-03-22T20:21:47.674Z,10.03
2018-03-22T20:24:15.123Z,8.70
2018-03-22T20:26:42.552Z,9.13
2018-03-22T20:29:10.773Z,10.03
2018-03-22T20:31:38.212Z,12.83
2018-03-22T20:34:05.656Z,18.90
2018-03-22T20:36:33.128Z,10.77
2018-03-22T20:39:00.584Z,11.17
2018-03-22T20:41:28.138Z,9.43
2018-03-22T20:43:55.568Z,9.40
2018-03-22T20:46:23.776Z,9.40
2018-03-22T20:48:51.249Z,9.17
2018-03-22T20:51:18.720Z,9.33
2018-03-22T20:53:46.165Z,10.60
2018-03-22T20:56:18.172Z,9.47
2018-03-22T20:58:46.409Z,8.53
2018-03-22T21:01:14.168Z,12.20
2018-03-22T21:03:41.603Z,11.50
2018-03-22T21:06:09.043Z,10.80
2018-03-22T21:08:36.515Z,9.23
2018-03-22T21:11:03.995Z,8.63
2018-03-22T21:13:31.445Z,8.90
2018-03-22T21:16:02.328Z,9.40
2018-03-22T21:18:29.868Z,9.33
2018-03-22T21:20:57.341Z,9.27
2018-03-22T21:23:25.586Z,9.43
2018-03-22T21:25:54.448Z,10.77
2018-03-22T21:28:21.947Z,11.03
2018-03-22T21:30:49.376Z,12.10
2018-03-22T21:33:16.971Z,10.77
2018-03-22T21:35:44.424Z,9.90
2018-03-22T21:38:11.868Z,10.30
2018-03-22T21:40:39.292Z,9.60
2018-03-22T21:43:08.459Z,9.50
2018-03-22T21:45:36.687Z,10.23
2018-03-22T21:48:04.128Z,9.10
2018-03-22T21:50:44.497Z,9.23
2018-03-22T21:53:11.960Z,8.83
2018-03-22T21:55:39.401Z,9.37
2018-03-22T21:58:06.885Z,9.07
2018-03-22T22:00:34.336Z,9.10
2018-03-22T22:03:01.788Z,9.30
2018-03-22T22:05:29.326Z,7.83
2018-03-22T22:07:56.764Z,10.80
2018-03-22T22:10:24.946Z,9.60
2018-03-22T22:12:52.444Z,9.30
2018-03-22T22:15:20.894Z,9.10
2018-03-22T22:17:48.328Z,8.37
2018-03-22T22:20:16.614Z,8.53
2018-03-22T22:22:44.186Z,9.70
2018-03-22T22:25:11.682Z,8.73
2018-03-22T22:27:40.006Z,10.30
2018-03-22T22:30:08.264Z,9.30
2018-03-22T22:32:36.527Z,9.80
2018-03-22T22:35:04.000Z,9.37
2018-03-22T22:37:31.451Z,9.17
2018-03-22T22:39:59.654Z,8.67
2018-03-22T22:42:27.091Z,9.03
2018-03-22T22:44:55.319Z,8.57
2018-03-22T22:47:22.774Z,9.17
2018-03-22T22:49:50.203Z,8.63
2018-03-22T22:52:17.664Z,8.40
2018-03-22T22:54:45.223Z,8.30
2018-03-22T22:57:12.708Z,9.77
2018-03-22T22:59:40.160Z,8.53
2018-03-22T23:02:07.593Z,9.80
2018-03-22T23:04:35.046Z,10.10
2018-03-22T23:07:02.529Z,10.47
2018-03-22T23:09:29.971Z,9.33
2018-03-22T23:11:57.407Z,9.60
2018-03-22T23:14:24.901Z,8.43
2018-03-22T23:16:52.353Z,9.77
2018-03-22T23:19:19.783Z,9.80
2018-03-22T23:21:47.228Z,10.03
2018-03-22T23:24:14.666Z,8.93
2018-03-22T23:26:42.916Z,8.97
2018-03-22T23:29:10.467Z,9.33
2018-03-22T23:31:37.903Z,8.70
2018-03-22T23:34:05.371Z,9.40
2018-03-22T23:36:32.820Z,10.53
2018-03-22T23:39:00.285Z,10.27
2018-03-22T23:41:27.724Z,11.03
2018-03-22T23:43:55.161Z,10.83
2018-03-22T23:46:23.366Z,11.50
2018-03-22T23:48:50.848Z,11.60
2018-03-22T23:51:18.303Z,11.63
2018-03-22T23:53:45.741Z,12.17
2018-03-22T23:56:13.181Z,12.60
2018-03-22T23:58:40.638Z,11.60
